sensor_id;sensor_type;location;lat;lon;timestamp;temperature;humidity
12156;DHT22;6141;49.092;8.516;2022-12-07T00:00:17;7.40;70.30
12156;DHT22;6141;49.092;8.516;2022-12-07T00:03:24;7.30;71.00
12156;DHT22;6141;49.092;8.516;2022-12-07T00:06:52;7.10;71.20
12156;DHT22;6141;49.092;8.516;2022-12-07T00:10:08;7.10;71.80
12156;DHT22;6141;49.092;8.516;2022-12-07T00:13:26;7.30;71.00
12156;DHT22;6141;49.092;8.516;2022-12-07T00:23:19;7.30;70.00
12156;DHT22;6141;49.092;8.516;2022-12-07T00:26:17;7.30;70.50
12156;DHT22;6141;49.092;8.516;2022-12-07T00:29:11;7.30;70.60
12156;DHT22;6141;49.092;8.516;2022-12-07T00:32:19;7.20;70.80
12156;DHT22;6141;49.092;8.516;2022-12-07T00:40:14;7.30;70.10
12156;DHT22;6141;49.092;8.516;2022-12-07T00:43:16;7.20;70.50
12156;DHT22;6141;49.092;8.516;2022-12-07T00:46:34;7.10;70.70
12156;DHT22;6141;49.092;8.516;2022-12-07T00:53:07;6.90;70.40
12156;DHT22;6141;49.092;8.516;2022-12-07T00:56:27;6.70;71.10
12156;DHT22;6141;49.092;8.516;2022-12-07T01:02:50;6.20;74.10
12156;DHT22;6141;49.092;8.516;2022-12-07T01:06:13;5.90;76.70
12156;DHT22;6141;49.092;8.516;2022-12-07T01:09:45;6.00;78.20
12156;DHT22;6141;49.092;8.516;2022-12-07T01:13:16;6.20;78.10
12156;DHT22;6141;49.092;8.516;2022-12-07T01:16:33;6.40;76.90
12156;DHT22;6141;49.092;8.516;2022-12-07T01:19:49;6.60;75.40
12156;DHT22;6141;49.092;8.516;2022-12-07T01:23:11;6.80;74.10
12156;DHT22;6141;49.092;8.516;2022-12-07T01:26:19;6.80;73.40
12156;DHT22;6141;49.092;8.516;2022-12-07T01:29:51;6.70;73.30
12156;DHT22;6141;49.092;8.516;2022-12-07T01:32:58;6.70;73.60
12156;DHT22;6141;49.092;8.516;2022-12-07T01:39:48;6.50;74.70
12156;DHT22;6141;49.092;8.516;2022-12-07T01:43:16;6.40;75.80
12156;DHT22;6141;49.092;8.516;2022-12-07T01:46:06;6.20;76.30
12156;DHT22;6141;49.092;8.516;2022-12-07T01:48:55;6.10;77.00
12156;DHT22;6141;49.092;8.516;2022-12-07T01:51:43;5.80;78.60
12156;DHT22;6141;49.092;8.516;2022-12-07T01:54:33;5.60;81.30
12156;DHT22;6141;49.092;8.516;2022-12-07T01:57:22;5.60;83.10
12156;DHT22;6141;49.092;8.516;2022-12-07T02:00:11;5.80;83.20
12156;DHT22;6141;49.092;8.516;2022-12-07T02:03:01;5.80;83.20
12156;DHT22;6141;49.092;8.516;2022-12-07T02:05:52;6.00;83.40
12156;DHT22;6141;49.092;8.516;2022-12-07T02:08:41;6.20;81.70
12156;DHT22;6141;49.092;8.516;2022-12-07T02:11:30;6.30;80.70
12156;DHT22;6141;49.092;8.516;2022-12-07T02:14:18;6.30;80.80
12156;DHT22;6141;49.092;8.516;2022-12-07T02:17:07;6.50;80.10
12156;DHT22;6141;49.092;8.516;2022-12-07T02:20:03;6.50;79.20
12156;DHT22;6141;49.092;8.516;2022-12-07T02:29:20;6.70;77.70
12156;DHT22;6141;49.092;8.516;2022-12-07T02:32:10;6.70;77.30
12156;DHT22;6141;49.092;8.516;2022-12-07T02:35:02;6.80;76.60
12156;DHT22;6141;49.092;8.516;2022-12-07T02:37:58;6.80;76.10
12156;DHT22;6141;49.092;8.516;2022-12-07T02:40:50;6.60;76.80
12156;DHT22;6141;49.092;8.516;2022-12-07T02:43:40;6.30;79.10
12156;DHT22;6141;49.092;8.516;2022-12-07T02:46:32;6.20;79.60
12156;DHT22;6141;49.092;8.516;2022-12-07T02:49:22;6.10;80.50
12156;DHT22;6141;49.092;8.516;2022-12-07T02:52:10;6.10;80.80
12156;DHT22;6141;49.092;8.516;2022-12-07T02:54:58;6.20;80.50
12156;DHT22;6141;49.092;8.516;2022-12-07T02:57:54;6.40;79.90
12156;DHT22;6141;49.092;8.516;2022-12-07T03:00:49;6.40;79.20
12156;DHT22;6141;49.092;8.516;2022-12-07T03:03:41;6.10;80.20
12156;DHT22;6141;49.092;8.516;2022-12-07T03:06:31;6.10;81.80
12156;DHT22;6141;49.092;8.516;2022-12-07T03:09:22;5.90;81.70
12156;DHT22;6141;49.092;8.516;2022-12-07T03:12:14;5.80;83.20
12156;DHT22;6141;49.092;8.516;2022-12-07T03:15:06;5.80;83.30
12156;DHT22;6141;49.092;8.516;2022-12-07T03:17:55;5.90;83.30
12156;DHT22;6141;49.092;8.516;2022-12-07T03:20:45;5.80;83.20
12156;DHT22;6141;49.092;8.516;2022-12-07T03:23:35;5.80;84.00
12156;DHT22;6141;49.092;8.516;2022-12-07T03:26:27;5.90;83.30
12156;DHT22;6141;49.092;8.516;2022-12-07T03:29:17;6.10;83.40
12156;DHT22;6141;49.092;8.516;2022-12-07T03:32:08;6.30;81.70
12156;DHT22;6141;49.092;8.516;2022-12-07T03:35:01;6.40;80.20
12156;DHT22;6141;49.092;8.516;2022-12-07T03:37:54;6.40;78.80
12156;DHT22;6141;49.092;8.516;2022-12-07T03:40:44;6.50;77.80
12156;DHT22;6141;49.092;8.516;2022-12-07T03:43:33;6.60;77.30
12156;DHT22;6141;49.092;8.516;2022-12-07T03:46:23;6.50;77.50
12156;DHT22;6141;49.092;8.516;2022-12-07T03:49:17;6.60;77.20
12156;DHT22;6141;49.092;8.516;2022-12-07T03:52:08;6.70;76.70
12156;DHT22;6141;49.092;8.516;2022-12-07T03:55:02;6.80;75.90
12156;DHT22;6141;49.092;8.516;2022-12-07T03:57:53;6.80;75.80
12156;DHT22;6141;49.092;8.516;2022-12-07T04:00:43;6.80;75.80
12156;DHT22;6141;49.092;8.516;2022-12-07T04:03:31;6.70;75.30
12156;DHT22;6141;49.092;8.516;2022-12-07T04:06:19;6.60;76.00
12156;DHT22;6141;49.092;8.516;2022-12-07T04:09:08;6.40;76.60
12156;DHT22;6141;49.092;8.516;2022-12-07T04:11:57;6.30;77.70
12156;DHT22;6141;49.092;8.516;2022-12-07T04:14:46;6.50;77.30
12156;DHT22;6141;49.092;8.516;2022-12-07T04:17:34;6.60;76.60
12156;DHT22;6141;49.092;8.516;2022-12-07T04:20:22;6.60;76.00
12156;DHT22;6141;49.092;8.516;2022-12-07T04:23:11;6.50;76.10
12156;DHT22;6141;49.092;8.516;2022-12-07T04:25:59;6.40;76.90
12156;DHT22;6141;49.092;8.516;2022-12-07T04:28:49;6.40;76.90
12156;DHT22;6141;49.092;8.516;2022-12-07T04:31:37;6.40;77.00
12156;DHT22;6141;49.092;8.516;2022-12-07T04:34:26;6.40;77.60
12156;DHT22;6141;49.092;8.516;2022-12-07T04:37:14;6.40;77.00
12156;DHT22;6141;49.092;8.516;2022-12-07T04:40:03;6.40;76.70
12156;DHT22;6141;49.092;8.516;2022-12-07T04:42:52;6.30;77.40
12156;DHT22;6141;49.092;8.516;2022-12-07T04:45:41;6.20;77.20
12156;DHT22;6141;49.092;8.516;2022-12-07T04:48:32;6.10;78.80
12156;DHT22;6141;49.092;8.516;2022-12-07T04:51:22;6.10;78.40
12156;DHT22;6141;49.092;8.516;2022-12-07T04:54:11;6.30;78.10
12156;DHT22;6141;49.092;8.516;2022-12-07T04:56:59;6.30;77.20
12156;DHT22;6141;49.092;8.516;2022-12-07T04:59:47;6.30;77.60
12156;DHT22;6141;49.092;8.516;2022-12-07T05:02:37;6.20;77.30
12156;DHT22;6141;49.092;8.516;2022-12-07T05:05:25;6.30;77.20
12156;DHT22;6141;49.092;8.516;2022-12-07T05:08:13;6.20;78.10
12156;DHT22;6141;49.092;8.516;2022-12-07T05:11:02;6.10;77.80
12156;DHT22;6141;49.092;8.516;2022-12-07T05:13:51;5.90;78.80
12156;DHT22;6141;49.092;8.516;2022-12-07T05:16:39;6.00;79.10
12156;DHT22;6141;49.092;8.516;2022-12-07T05:19:29;6.10;78.30
12156;DHT22;6141;49.092;8.516;2022-12-07T05:22:17;6.10;78.00
12156;DHT22;6141;49.092;8.516;2022-12-07T05:25:06;6.20;77.70
12156;DHT22;6141;49.092;8.516;2022-12-07T05:27:54;6.20;77.60
12156;DHT22;6141;49.092;8.516;2022-12-07T05:30:42;6.30;77.60
12156;DHT22;6141;49.092;8.516;2022-12-07T05:33:31;6.20;77.40
12156;DHT22;6141;49.092;8.516;2022-12-07T05:36:20;6.20;76.90
12156;DHT22;6141;49.092;8.516;2022-12-07T05:39:09;6.30;77.40
12156;DHT22;6141;49.092;8.516;2022-12-07T05:41:58;6.40;75.70
12156;DHT22;6141;49.092;8.516;2022-12-07T05:45:01;6.30;75.70
12156;DHT22;6141;49.092;8.516;2022-12-07T05:47:50;6.10;77.20
12156;DHT22;6141;49.092;8.516;2022-12-07T05:50:38;6.00;78.00
12156;DHT22;6141;49.092;8.516;2022-12-07T05:53:28;6.00;77.80
12156;DHT22;6141;49.092;8.516;2022-12-07T05:56:16;5.90;77.60
12156;DHT22;6141;49.092;8.516;2022-12-07T05:59:04;5.90;78.30
12156;DHT22;6141;49.092;8.516;2022-12-07T06:02:11;5.90;78.00
12156;DHT22;6141;49.092;8.516;2022-12-07T06:05:00;5.90;78.70
12156;DHT22;6141;49.092;8.516;2022-12-07T06:07:48;6.00;78.20
12156;DHT22;6141;49.092;8.516;2022-12-07T06:10:38;6.00;78.00
12156;DHT22;6141;49.092;8.516;2022-12-07T06:13:26;6.00;76.90
12156;DHT22;6141;49.092;8.516;2022-12-07T06:16:13;6.10;77.10
12156;DHT22;6141;49.092;8.516;2022-12-07T06:19:02;6.10;76.30
12156;DHT22;6141;49.092;8.516;2022-12-07T06:21:50;6.10;77.00
12156;DHT22;6141;49.092;8.516;2022-12-07T06:24:39;6.10;76.30
12156;DHT22;6141;49.092;8.516;2022-12-07T06:27:29;5.80;76.80
12156;DHT22;6141;49.092;8.516;2022-12-07T06:30:17;5.60;78.20
12156;DHT22;6141;49.092;8.516;2022-12-07T06:33:05;5.60;78.90
12156;DHT22;6141;49.092;8.516;2022-12-07T06:35:53;5.60;78.50
12156;DHT22;6141;49.092;8.516;2022-12-07T06:38:42;5.70;78.20
12156;DHT22;6141;49.092;8.516;2022-12-07T06:41:30;5.70;78.10
12156;DHT22;6141;49.092;8.516;2022-12-07T06:44:20;5.70;78.30
12156;DHT22;6141;49.092;8.516;2022-12-07T06:47:08;5.60;78.10
12156;DHT22;6141;49.092;8.516;2022-12-07T06:50:18;5.60;78.50
12156;DHT22;6141;49.092;8.516;2022-12-07T06:53:07;5.60;78.50
12156;DHT22;6141;49.092;8.516;2022-12-07T06:55:55;5.50;78.80
12156;DHT22;6141;49.092;8.516;2022-12-07T06:58:44;5.50;78.90
12156;DHT22;6141;49.092;8.516;2022-12-07T07:01:33;5.60;78.60
12156;DHT22;6141;49.092;8.516;2022-12-07T07:04:22;5.50;78.50
12156;DHT22;6141;49.092;8.516;2022-12-07T07:07:11;5.50;78.80
12156;DHT22;6141;49.092;8.516;2022-12-07T07:10:00;5.50;78.60
12156;DHT22;6141;49.092;8.516;2022-12-07T07:12:48;5.40;78.50
12156;DHT22;6141;49.092;8.516;2022-12-07T07:15:43;5.40;79.10
12156;DHT22;6141;49.092;8.516;2022-12-07T07:18:32;5.40;79.10
12156;DHT22;6141;49.092;8.516;2022-12-07T07:21:21;5.40;79.20
12156;DHT22;6141;49.092;8.516;2022-12-07T07:24:09;5.40;79.00
12156;DHT22;6141;49.092;8.516;2022-12-07T07:26:58;5.50;79.10
12156;DHT22;6141;49.092;8.516;2022-12-07T07:29:46;5.50;79.00
12156;DHT22;6141;49.092;8.516;2022-12-07T07:32:34;5.60;79.10
12156;DHT22;6141;49.092;8.516;2022-12-07T07:35:24;5.40;79.50
12156;DHT22;6141;49.092;8.516;2022-12-07T07:38:12;5.40;79.90
12156;DHT22;6141;49.092;8.516;2022-12-07T07:41:00;5.50;79.30
12156;DHT22;6141;49.092;8.516;2022-12-07T07:43:48;5.60;78.90
12156;DHT22;6141;49.092;8.516;2022-12-07T07:46:37;5.60;79.30
12156;DHT22;6141;49.092;8.516;2022-12-07T07:49:25;5.70;78.60
12156;DHT22;6141;49.092;8.516;2022-12-07T07:52:15;5.70;78.60
12156;DHT22;6141;49.092;8.516;2022-12-07T07:55:04;5.70;77.70
12156;DHT22;6141;49.092;8.516;2022-12-07T07:57:52;5.70;78.10
12156;DHT22;6141;49.092;8.516;2022-12-07T08:00:41;5.70;77.40
12156;DHT22;6141;49.092;8.516;2022-12-07T08:03:30;5.70;77.40
12156;DHT22;6141;49.092;8.516;2022-12-07T08:06:18;5.60;77.60
12156;DHT22;6141;49.092;8.516;2022-12-07T08:09:08;5.50;78.40
12156;DHT22;6141;49.092;8.516;2022-12-07T08:11:56;5.60;77.60
12156;DHT22;6141;49.092;8.516;2022-12-07T08:14:45;5.60;77.60
12156;DHT22;6141;49.092;8.516;2022-12-07T08:17:33;5.70;77.40
12156;DHT22;6141;49.092;8.516;2022-12-07T08:20:21;5.70;77.00
12156;DHT22;6141;49.092;8.516;2022-12-07T08:23:10;5.70;76.40
12156;DHT22;6141;49.092;8.516;2022-12-07T08:26:01;5.60;77.30
12156;DHT22;6141;49.092;8.516;2022-12-07T08:28:49;5.60;76.80
12156;DHT22;6141;49.092;8.516;2022-12-07T08:31:38;5.60;77.60
12156;DHT22;6141;49.092;8.516;2022-12-07T08:34:26;5.80;77.20
12156;DHT22;6141;49.092;8.516;2022-12-07T08:37:15;5.90;76.10
12156;DHT22;6141;49.092;8.516;2022-12-07T08:40:03;6.00;74.70
12156;DHT22;6141;49.092;8.516;2022-12-07T08:42:53;6.00;74.50
12156;DHT22;6141;49.092;8.516;2022-12-07T08:45:42;5.90;74.20
12156;DHT22;6141;49.092;8.516;2022-12-07T08:48:30;6.00;74.20
12156;DHT22;6141;49.092;8.516;2022-12-07T08:51:18;6.00;74.20
12156;DHT22;6141;49.092;8.516;2022-12-07T08:54:07;6.00;73.90
12156;DHT22;6141;49.092;8.516;2022-12-07T08:56:57;5.90;74.20
12156;DHT22;6141;49.092;8.516;2022-12-07T08:59:47;6.00;74.30
12156;DHT22;6141;49.092;8.516;2022-12-07T09:02:35;6.10;74.40
12156;DHT22;6141;49.092;8.516;2022-12-07T09:05:24;6.00;74.30
12156;DHT22;6141;49.092;8.516;2022-12-07T09:08:12;6.20;74.10
12156;DHT22;6141;49.092;8.516;2022-12-07T09:11:01;6.30;73.80
12156;DHT22;6141;49.092;8.516;2022-12-07T09:13:49;6.20;72.40
12156;DHT22;6141;49.092;8.516;2022-12-07T09:16:39;6.00;73.30
12156;DHT22;6141;49.092;8.516;2022-12-07T09:19:27;5.90;73.90
12156;DHT22;6141;49.092;8.516;2022-12-07T09:22:15;5.80;74.10
12156;DHT22;6141;49.092;8.516;2022-12-07T09:25:04;5.70;75.50
12156;DHT22;6141;49.092;8.516;2022-12-07T09:27:55;5.80;75.40
12156;DHT22;6141;49.092;8.516;2022-12-07T09:30:45;5.80;74.10
12156;DHT22;6141;49.092;8.516;2022-12-07T09:33:55;5.80;74.10
12156;DHT22;6141;49.092;8.516;2022-12-07T09:36:44;5.90;74.20
12156;DHT22;6141;49.092;8.516;2022-12-07T09:39:32;6.10;74.40
12156;DHT22;6141;49.092;8.516;2022-12-07T09:42:25;6.20;73.70
12156;DHT22;6141;49.092;8.516;2022-12-07T09:45:15;6.40;73.00
12156;DHT22;6141;49.092;8.516;2022-12-07T09:48:05;6.60;72.20
12156;DHT22;6141;49.092;8.516;2022-12-07T09:50:54;6.80;71.80
12156;DHT22;6141;49.092;8.516;2022-12-07T09:53:44;6.50;70.70
12156;DHT22;6141;49.092;8.516;2022-12-07T09:56:33;6.40;71.60
12156;DHT22;6141;49.092;8.516;2022-12-07T09:59:21;6.40;72.00
12156;DHT22;6141;49.092;8.516;2022-12-07T10:02:24;6.50;71.50
12156;DHT22;6141;49.092;8.516;2022-12-07T10:05:13;6.50;70.50
12156;DHT22;6141;49.092;8.516;2022-12-07T10:08:11;6.60;70.80
12156;DHT22;6141;49.092;8.516;2022-12-07T10:11:01;6.50;70.40
12156;DHT22;6141;49.092;8.516;2022-12-07T10:13:51;6.60;70.70
12156;DHT22;6141;49.092;8.516;2022-12-07T10:16:41;6.60;70.20
12156;DHT22;6141;49.092;8.516;2022-12-07T10:19:29;6.60;70.70
12156;DHT22;6141;49.092;8.516;2022-12-07T10:22:18;6.50;70.70
12156;DHT22;6141;49.092;8.516;2022-12-07T10:25:16;6.50;70.40
12156;DHT22;6141;49.092;8.516;2022-12-07T10:28:11;6.40;70.90
12156;DHT22;6141;49.092;8.516;2022-12-07T10:31:00;6.40;71.60
12156;DHT22;6141;49.092;8.516;2022-12-07T10:33:51;6.50;71.90
12156;DHT22;6141;49.092;8.516;2022-12-07T10:36:39;6.70;71.40
12156;DHT22;6141;49.092;8.516;2022-12-07T10:39:28;6.70;70.10
12156;DHT22;6141;49.092;8.516;2022-12-07T10:42:18;6.70;70.20
12156;DHT22;6141;49.092;8.516;2022-12-07T10:45:08;6.80;69.60
12156;DHT22;6141;49.092;8.516;2022-12-07T10:47:59;6.70;68.30
12156;DHT22;6141;49.092;8.516;2022-12-07T10:50:56;6.70;69.70
12156;DHT22;6141;49.092;8.516;2022-12-07T10:53:51;6.70;70.00
12156;DHT22;6141;49.092;8.516;2022-12-07T10:56:45;6.70;68.30
12156;DHT22;6141;49.092;8.516;2022-12-07T11:03:21;6.80;68.10
12156;DHT22;6141;49.092;8.516;2022-12-07T11:06:14;6.70;67.70
12156;DHT22;6141;49.092;8.516;2022-12-07T11:09:24;6.70;68.90
12156;DHT22;6141;49.092;8.516;2022-12-07T11:12:40;6.70;68.30
12156;DHT22;6141;49.092;8.516;2022-12-07T11:15:31;6.70;67.90
12156;DHT22;6141;49.092;8.516;2022-12-07T11:18:24;6.60;68.90
12156;DHT22;6141;49.092;8.516;2022-12-07T11:21:16;6.60;69.50
12156;DHT22;6141;49.092;8.516;2022-12-07T11:24:08;6.60;68.90
12156;DHT22;6141;49.092;8.516;2022-12-07T11:27:02;6.70;69.70
12156;DHT22;6141;49.092;8.516;2022-12-07T11:33:12;6.80;69.70
12156;DHT22;6141;49.092;8.516;2022-12-07T11:36:04;6.90;68.40
12156;DHT22;6141;49.092;8.516;2022-12-07T11:38:55;6.80;69.10
12156;DHT22;6141;49.092;8.516;2022-12-07T11:41:45;6.70;67.90
12156;DHT22;6141;49.092;8.516;2022-12-07T11:44:36;6.80;68.30
12156;DHT22;6141;49.092;8.516;2022-12-07T11:47:30;6.90;68.30
12156;DHT22;6141;49.092;8.516;2022-12-07T11:50:26;7.00;66.90
12156;DHT22;6141;49.092;8.516;2022-12-07T11:53:18;6.90;68.10
12156;DHT22;6141;49.092;8.516;2022-12-07T11:56:09;6.90;67.90
12156;DHT22;6141;49.092;8.516;2022-12-07T11:59:00;7.00;68.70
12156;DHT22;6141;49.092;8.516;2022-12-07T12:01:53;6.90;68.00
12156;DHT22;6141;49.092;8.516;2022-12-07T12:04:45;6.90;68.40
12156;DHT22;6141;49.092;8.516;2022-12-07T12:07:35;6.90;68.50
12156;DHT22;6141;49.092;8.516;2022-12-07T12:10:50;7.00;68.50
12156;DHT22;6141;49.092;8.516;2022-12-07T12:20:17;7.40;66.50
12156;DHT22;6141;49.092;8.516;2022-12-07T12:23:09;7.40;65.90
12156;DHT22;6141;49.092;8.516;2022-12-07T12:26:01;7.30;67.00
12156;DHT22;6141;49.092;8.516;2022-12-07T12:28:52;7.30;67.70
12156;DHT22;6141;49.092;8.516;2022-12-07T12:31:41;7.20;66.40
12156;DHT22;6141;49.092;8.516;2022-12-07T12:34:30;7.20;67.20
12156;DHT22;6141;49.092;8.516;2022-12-07T12:40:41;7.00;67.60
12156;DHT22;6141;49.092;8.516;2022-12-07T12:43:43;7.30;66.70
12156;DHT22;6141;49.092;8.516;2022-12-07T12:49:38;7.20;67.30
12156;DHT22;6141;49.092;8.516;2022-12-07T12:55:49;7.30;67.50
12156;DHT22;6141;49.092;8.516;2022-12-07T12:58:44;7.30;67.10
12156;DHT22;6141;49.092;8.516;2022-12-07T13:01:39;7.20;68.20
12156;DHT22;6141;49.092;8.516;2022-12-07T13:04:39;7.10;68.20
12156;DHT22;6141;49.092;8.516;2022-12-07T13:10:39;7.30;68.40
12156;DHT22;6141;49.092;8.516;2022-12-07T13:13:29;7.20;67.90
12156;DHT22;6141;49.092;8.516;2022-12-07T13:22:51;6.90;69.70
12156;DHT22;6141;49.092;8.516;2022-12-07T13:25:45;7.10;69.40
12156;DHT22;6141;49.092;8.516;2022-12-07T13:28:36;7.20;69.20
12156;DHT22;6141;49.092;8.516;2022-12-07T13:31:30;7.20;68.70
12156;DHT22;6141;49.092;8.516;2022-12-07T13:34:30;7.20;68.60
12156;DHT22;6141;49.092;8.516;2022-12-07T13:37:24;7.20;68.40
12156;DHT22;6141;49.092;8.516;2022-12-07T13:40:17;7.20;68.00
12156;DHT22;6141;49.092;8.516;2022-12-07T13:43:12;7.20;68.20
12156;DHT22;6141;49.092;8.516;2022-12-07T13:46:02;6.90;68.50
12156;DHT22;6141;49.092;8.516;2022-12-07T13:48:55;6.90;69.20
12156;DHT22;6141;49.092;8.516;2022-12-07T13:51:44;6.90;68.80
12156;DHT22;6141;49.092;8.516;2022-12-07T13:54:33;7.00;68.40
12156;DHT22;6141;49.092;8.516;2022-12-07T13:57:22;6.90;68.70
12156;DHT22;6141;49.092;8.516;2022-12-07T14:00:14;7.00;69.20
12156;DHT22;6141;49.092;8.516;2022-12-07T14:03:04;6.90;69.40
12156;DHT22;6141;49.092;8.516;2022-12-07T14:09:17;7.20;67.90
12156;DHT22;6141;49.092;8.516;2022-12-07T14:12:06;7.10;67.80
12156;DHT22;6141;49.092;8.516;2022-12-07T14:14:56;6.90;68.80
12156;DHT22;6141;49.092;8.516;2022-12-07T14:17:49;7.00;68.80
12156;DHT22;6141;49.092;8.516;2022-12-07T14:20:38;7.20;68.70
12156;DHT22;6141;49.092;8.516;2022-12-07T14:23:26;7.20;68.20
12156;DHT22;6141;49.092;8.516;2022-12-07T14:26:15;7.40;67.30
12156;DHT22;6141;49.092;8.516;2022-12-07T14:29:29;7.50;66.20
12156;DHT22;6141;49.092;8.516;2022-12-07T14:32:20;7.50;66.00
12156;DHT22;6141;49.092;8.516;2022-12-07T14:35:10;7.40;65.90
12156;DHT22;6141;49.092;8.516;2022-12-07T14:37:58;7.30;65.90
12156;DHT22;6141;49.092;8.516;2022-12-07T14:40:47;7.20;66.30
12156;DHT22;6141;49.092;8.516;2022-12-07T14:43:35;7.20;66.70
12156;DHT22;6141;49.092;8.516;2022-12-07T14:46:40;7.10;65.70
12156;DHT22;6141;49.092;8.516;2022-12-07T14:49:30;7.10;65.70
12156;DHT22;6141;49.092;8.516;2022-12-07T14:52:24;7.20;65.80
12156;DHT22;6141;49.092;8.516;2022-12-07T14:55:34;7.20;65.80
12156;DHT22;6141;49.092;8.516;2022-12-07T14:58:23;7.20;65.70
12156;DHT22;6141;49.092;8.516;2022-12-07T15:01:11;7.10;65.70
12156;DHT22;6141;49.092;8.516;2022-12-07T15:04:00;7.00;66.00
12156;DHT22;6141;49.092;8.516;2022-12-07T15:06:56;7.10;66.00
12156;DHT22;6141;49.092;8.516;2022-12-07T15:09:45;7.10;65.70
12156;DHT22;6141;49.092;8.516;2022-12-07T15:12:33;7.20;65.00
12156;DHT22;6141;49.092;8.516;2022-12-07T15:15:21;7.10;65.70
12156;DHT22;6141;49.092;8.516;2022-12-07T15:18:13;7.00;65.70
12156;DHT22;6141;49.092;8.516;2022-12-07T15:21:01;6.60;67.70
12156;DHT22;6141;49.092;8.516;2022-12-07T15:23:53;6.40;68.60
12156;DHT22;6141;49.092;8.516;2022-12-07T15:26:41;6.20;69.20
12156;DHT22;6141;49.092;8.516;2022-12-07T15:29:30;6.20;69.70
12156;DHT22;6141;49.092;8.516;2022-12-07T15:32:18;6.10;69.90
12156;DHT22;6141;49.092;8.516;2022-12-07T15:35:07;6.10;70.30
12156;DHT22;6141;49.092;8.516;2022-12-07T15:37:55;6.20;70.20
12156;DHT22;6141;49.092;8.516;2022-12-07T15:40:47;6.20;70.30
12156;DHT22;6141;49.092;8.516;2022-12-07T15:43:35;6.30;70.00
12156;DHT22;6141;49.092;8.516;2022-12-07T15:46:41;6.30;69.50
12156;DHT22;6141;49.092;8.516;2022-12-07T15:49:30;6.40;69.90
12156;DHT22;6141;49.092;8.516;2022-12-07T15:52:18;6.50;69.30
12156;DHT22;6141;49.092;8.516;2022-12-07T15:55:07;6.50;69.10
12156;DHT22;6141;49.092;8.516;2022-12-07T15:57:57;6.50;68.90
12156;DHT22;6141;49.092;8.516;2022-12-07T16:00:46;6.60;68.40
12156;DHT22;6141;49.092;8.516;2022-12-07T16:03:35;6.60;67.90
12156;DHT22;6141;49.092;8.516;2022-12-07T16:06:23;6.60;69.00
12156;DHT22;6141;49.092;8.516;2022-12-07T16:09:11;6.70;68.20
12156;DHT22;6141;49.092;8.516;2022-12-07T16:11:59;6.70;67.90
12156;DHT22;6141;49.092;8.516;2022-12-07T16:14:49;6.70;67.50
12156;DHT22;6141;49.092;8.516;2022-12-07T16:17:37;6.70;67.00
12156;DHT22;6141;49.092;8.516;2022-12-07T16:20:25;6.70;68.10
12156;DHT22;6141;49.092;8.516;2022-12-07T16:23:14;6.70;67.40
12156;DHT22;6141;49.092;8.516;2022-12-07T16:26:03;6.60;67.30
12156;DHT22;6141;49.092;8.516;2022-12-07T16:28:52;6.50;67.70
12156;DHT22;6141;49.092;8.516;2022-12-07T16:31:41;6.50;68.40
12156;DHT22;6141;49.092;8.516;2022-12-07T16:34:30;6.50;68.30
12156;DHT22;6141;49.092;8.516;2022-12-07T16:37:18;6.40;68.80
12156;DHT22;6141;49.092;8.516;2022-12-07T16:40:07;6.30;69.50
12156;DHT22;6141;49.092;8.516;2022-12-07T16:42:55;6.40;68.80
12156;DHT22;6141;49.092;8.516;2022-12-07T16:45:44;6.50;68.80
12156;DHT22;6141;49.092;8.516;2022-12-07T16:48:36;6.50;68.60
12156;DHT22;6141;49.092;8.516;2022-12-07T16:51:24;6.60;68.50
12156;DHT22;6141;49.092;8.516;2022-12-07T16:54:12;6.60;68.30
12156;DHT22;6141;49.092;8.516;2022-12-07T16:57:01;6.70;68.30
12156;DHT22;6141;49.092;8.516;2022-12-07T16:59:49;6.70;67.70
12156;DHT22;6141;49.092;8.516;2022-12-07T17:02:38;6.80;67.60
12156;DHT22;6141;49.092;8.516;2022-12-07T17:05:27;6.70;67.50
12156;DHT22;6141;49.092;8.516;2022-12-07T17:08:16;6.70;68.00
12156;DHT22;6141;49.092;8.516;2022-12-07T17:11:08;6.70;67.80
12156;DHT22;6141;49.092;8.516;2022-12-07T17:13:57;6.80;67.20
12156;DHT22;6141;49.092;8.516;2022-12-07T17:17:03;6.70;67.20
12156;DHT22;6141;49.092;8.516;2022-12-07T17:19:52;6.60;67.90
12156;DHT22;6141;49.092;8.516;2022-12-07T17:22:41;6.50;68.50
12156;DHT22;6141;49.092;8.516;2022-12-07T17:25:30;6.40;69.10
12156;DHT22;6141;49.092;8.516;2022-12-07T17:28:18;6.30;69.50
12156;DHT22;6141;49.092;8.516;2022-12-07T17:31:09;6.20;69.70
12156;DHT22;6141;49.092;8.516;2022-12-07T17:33:57;6.20;70.10
12156;DHT22;6141;49.092;8.516;2022-12-07T17:36:46;6.00;70.60
12156;DHT22;6141;49.092;8.516;2022-12-07T17:39:35;6.10;70.90
12156;DHT22;6141;49.092;8.516;2022-12-07T17:42:24;6.10;70.30
12156;DHT22;6141;49.092;8.516;2022-12-07T17:45:26;6.30;70.00
12156;DHT22;6141;49.092;8.516;2022-12-07T17:48:14;6.30;69.50
12156;DHT22;6141;49.092;8.516;2022-12-07T17:51:03;6.40;68.80
12156;DHT22;6141;49.092;8.516;2022-12-07T17:54:09;6.40;68.80
12156;DHT22;6141;49.092;8.516;2022-12-07T17:56:59;6.40;69.60
12156;DHT22;6141;49.092;8.516;2022-12-07T17:59:48;6.30;69.50
12156;DHT22;6141;49.092;8.516;2022-12-07T18:14:50;6.70;67.40
12156;DHT22;6141;49.092;8.516;2022-12-07T18:18:31;6.80;66.60
12156;DHT22;6141;49.092;8.516;2022-12-07T18:21:44;6.80;66.90
12156;DHT22;6141;49.092;8.516;2022-12-07T18:25:24;6.70;65.90
12156;DHT22;6141;49.092;8.516;2022-12-07T18:28:41;6.90;65.50
12156;DHT22;6141;49.092;8.516;2022-12-07T18:32:07;6.80;65.40
12156;DHT22;6141;49.092;8.516;2022-12-07T18:35:36;6.80;65.50
12156;DHT22;6141;49.092;8.516;2022-12-07T18:42:28;6.80;65.50
12156;DHT22;6141;49.092;8.516;2022-12-07T18:45:48;6.70;65.40
12156;DHT22;6141;49.092;8.516;2022-12-07T18:53:43;6.60;66.00
12156;DHT22;6141;49.092;8.516;2022-12-07T18:57:23;6.60;66.10
12156;DHT22;6141;49.092;8.516;2022-12-07T19:05:46;6.90;65.50
12156;DHT22;6141;49.092;8.516;2022-12-07T19:08:45;6.70;65.30
12156;DHT22;6141;49.092;8.516;2022-12-07T19:12:05;6.70;65.30
12156;DHT22;6141;49.092;8.516;2022-12-07T19:15:15;6.60;65.30
12156;DHT22;6141;49.092;8.516;2022-12-07T19:18:53;6.70;65.40
12156;DHT22;6141;49.092;8.516;2022-12-07T19:21:41;6.70;64.00
12156;DHT22;6141;49.092;8.516;2022-12-07T19:28:24;6.20;64.50
12156;DHT22;6141;49.092;8.516;2022-12-07T19:31:43;5.80;65.10
12156;DHT22;6141;49.092;8.516;2022-12-07T19:34:46;5.70;66.00
12156;DHT22;6141;49.092;8.516;2022-12-07T19:38:34;5.50;65.60
12156;DHT22;6141;49.092;8.516;2022-12-07T19:45:37;5.30;67.10
12156;DHT22;6141;49.092;8.516;2022-12-07T19:49:04;5.40;68.00
12156;DHT22;6141;49.092;8.516;2022-12-07T19:52:46;5.40;67.40
12156;DHT22;6141;49.092;8.516;2022-12-07T19:56:04;5.40;67.90
12156;DHT22;6141;49.092;8.516;2022-12-07T19:59:20;5.50;67.80
12156;DHT22;6141;49.092;8.516;2022-12-07T20:06:11;5.40;67.60
12156;DHT22;6141;49.092;8.516;2022-12-07T20:08:51;5.50;68.30
12156;DHT22;6141;49.092;8.516;2022-12-07T20:15:01;5.60;67.00
12156;DHT22;6141;49.092;8.516;2022-12-07T20:17:30;5.70;67.40
12156;DHT22;6141;49.092;8.516;2022-12-07T20:19:58;5.60;67.00
12156;DHT22;6141;49.092;8.516;2022-12-07T20:22:32;5.50;66.40
12156;DHT22;6141;49.092;8.516;2022-12-07T20:25:01;5.40;67.50
12156;DHT22;6141;49.092;8.516;2022-12-07T20:27:31;5.20;67.60
12156;DHT22;6141;49.092;8.516;2022-12-07T20:30:00;5.10;68.90
12156;DHT22;6141;49.092;8.516;2022-12-07T20:32:34;5.10;69.20
12156;DHT22;6141;49.092;8.516;2022-12-07T20:35:58;5.20;69.10
12156;DHT22;6141;49.092;8.516;2022-12-07T20:39:14;5.30;68.20